createdAt,value
2019-05-11T00:01:18.160Z,99.90
2019-05-11T00:03:47.691Z,99.90
2019-05-11T00:06:17.313Z,99.90
2019-05-11T00:08:46.802Z,99.90
2019-05-11T00:11:16.259Z,99.90
2019-05-11T00:13:45.755Z,99.90
2019-05-11T00:16:18.772Z,99.90
2019-05-11T00:18:46.446Z,99.90
2019-05-11T00:21:15.954Z,99.90
2019-05-11T00:23:45.419Z,99.90
2019-05-11T00:26:14.929Z,99.90
2019-05-11T00:28:44.677Z,99.90
2019-05-11T00:31:14.154Z,99.90
2019-05-11T00:33:43.632Z,99.90
2019-05-11T00:36:13.120Z,99.90
2019-05-11T00:38:42.618Z,99.90
2019-05-11T00:41:12.160Z,99.90
2019-05-11T00:43:41.631Z,99.90
2019-05-11T00:46:11.105Z,99.90
2019-05-11T00:48:40.642Z,99.90
2019-05-11T00:51:10.379Z,99.90
2019-05-11T00:53:39.858Z,99.90
2019-05-11T00:56:09.211Z,99.90
2019-05-11T00:58:38.730Z,99.90
2019-05-11T01:01:08.205Z,99.90
2019-05-11T01:03:37.700Z,99.90
2019-05-11T01:06:07.303Z,99.90
2019-05-11T01:08:36.766Z,99.90
2019-05-11T01:11:06.247Z,99.90
2019-05-11T01:13:35.654Z,99.90
2019-05-11T01:16:05.130Z,99.90
2019-05-11T01:18:34.687Z,99.90
2019-05-11T01:21:04.294Z,99.90
2019-05-11T01:23:33.776Z,99.90
2019-05-11T01:26:03.283Z,99.90
2019-05-11T01:28:32.685Z,99.90
2019-05-11T01:31:02.174Z,99.90
2019-05-11T01:33:32.443Z,99.90
2019-05-11T01:36:01.997Z,99.90
2019-05-11T01:38:31.477Z,99.90
2019-05-11T01:41:00.983Z,99.90
2019-05-11T01:43:30.464Z,99.90
2019-05-11T01:46:00.064Z,99.90
2019-05-11T01:48:29.546Z,99.90
2019-05-11T01:50:59.011Z,99.90
2019-05-11T01:53:28.477Z,99.90
2019-05-11T01:55:57.984Z,99.90
2019-05-11T01:58:27.468Z,99.90
2019-05-11T02:00:56.970Z,99.90
2019-05-11T02:03:26.440Z,99.90
2019-05-11T02:05:55.935Z,99.90
2019-05-11T02:08:25.448Z,99.90
2019-05-11T02:10:54.911Z,99.90
2019-05-11T02:13:24.458Z,99.90
2019-05-11T02:15:53.954Z,99.90
2019-05-11T02:18:23.474Z,99.90
2019-05-11T02:20:52.990Z,99.90
2019-05-11T02:23:22.521Z,99.90
2019-05-11T02:25:51.977Z,99.90
2019-05-11T02:28:21.390Z,99.90
2019-05-11T02:30:50.891Z,99.90
2019-05-11T02:33:20.364Z,99.90
2019-05-11T02:35:49.854Z,99.90
2019-05-11T02:38:19.533Z,99.90
2019-05-11T02:40:49.107Z,99.90
2019-05-11T02:43:18.721Z,99.90
2019-05-11T02:45:48.237Z,99.90
2019-05-11T02:48:17.809Z,99.90
2019-05-11T02:50:47.314Z,99.90
2019-05-11T02:53:16.823Z,99.90
2019-05-11T02:55:46.393Z,99.90
2019-05-11T02:58:15.905Z,99.90
2019-05-11T03:00:46.327Z,99.90
2019-05-11T03:03:15.839Z,99.90
2019-05-11T03:05:45.296Z,99.90
2019-05-11T03:08:14.803Z,99.90
2019-05-11T03:10:44.277Z,99.90
2019-05-11T03:13:13.797Z,99.90
2019-05-11T03:15:43.316Z,99.90
2019-05-11T03:18:12.873Z,99.90
2019-05-11T03:20:42.345Z,99.90
2019-05-11T03:23:11.855Z,99.90
2019-05-11T03:25:41.337Z,99.90
2019-05-11T03:28:10.904Z,99.90
2019-05-11T03:30:40.651Z,99.90
2019-05-11T03:33:10.426Z,99.90
2019-05-11T03:35:40.294Z,99.90
2019-05-11T03:38:09.802Z,99.90
2019-05-11T03:40:39.272Z,99.90
2019-05-11T03:43:08.821Z,99.90
2019-05-11T03:45:38.491Z,99.90
2019-05-11T03:48:07.967Z,99.90
2019-05-11T03:50:37.447Z,99.90
2019-05-11T03:53:06.960Z,99.90
2019-05-11T03:55:36.434Z,99.90
2019-05-11T03:58:05.849Z,99.90
2019-05-11T04:00:35.336Z,99.90
2019-05-11T04:03:04.802Z,99.90
2019-05-11T04:05:34.262Z,99.90
2019-05-11T04:08:03.908Z,99.90
2019-05-11T04:10:33.368Z,99.90
2019-05-11T04:13:02.857Z,99.90
2019-05-11T04:15:32.281Z,99.90
2019-05-11T04:18:01.760Z,99.90
2019-05-11T04:20:31.261Z,99.90
2019-05-11T04:23:00.740Z,99.90
2019-05-11T04:25:30.209Z,99.90
2019-05-11T04:27:59.729Z,99.90
2019-05-11T04:30:29.192Z,99.90
2019-05-11T04:32:58.617Z,99.90
2019-05-11T04:35:28.180Z,99.90
2019-05-11T04:37:57.724Z,99.90
2019-05-11T04:40:27.200Z,99.90
2019-05-11T04:42:56.776Z,99.90
2019-05-11T04:45:26.353Z,99.90
2019-05-11T04:47:55.819Z,99.90
2019-05-11T04:50:25.462Z,99.90
2019-05-11T04:52:55.000Z,99.90
2019-05-11T04:55:24.487Z,99.90
2019-05-11T04:57:54.030Z,99.90
2019-05-11T05:00:23.519Z,99.90
2019-05-11T05:02:53.061Z,99.90
2019-05-11T05:05:22.680Z,99.90
2019-05-11T05:07:52.280Z,99.90
2019-05-11T05:10:22.378Z,99.90
2019-05-11T05:12:53.373Z,99.90
2019-05-11T05:15:23.342Z,99.90
2019-05-11T05:17:52.919Z,99.90
2019-05-11T05:20:22.455Z,99.90
2019-05-11T05:22:51.936Z,99.90
2019-05-11T05:25:21.460Z,99.90
2019-05-11T05:27:50.931Z,99.90
2019-05-11T05:30:20.404Z,99.90
2019-05-11T05:32:49.988Z,99.90
2019-05-11T05:35:19.458Z,99.90
2019-05-11T05:37:49.037Z,99.90
2019-05-11T05:40:18.537Z,99.90
2019-05-11T05:42:48.122Z,99.90
2019-05-11T05:45:17.588Z,99.90
2019-05-11T05:47:47.092Z,99.90
2019-05-11T05:50:16.575Z,99.90
2019-05-11T05:52:46.137Z,99.90
2019-05-11T05:55:15.720Z,99.90
2019-05-11T05:57:45.274Z,99.90
2019-05-11T06:00:14.766Z,99.90
2019-05-11T06:02:44.270Z,99.90
2019-05-11T06:05:13.738Z,99.90
2019-05-11T06:07:43.239Z,99.90
2019-05-11T06:10:12.718Z,99.90
2019-05-11T06:12:42.200Z,99.90
2019-05-11T06:15:11.720Z,99.90
2019-05-11T06:17:41.196Z,99.90
2019-05-11T06:20:10.802Z,99.90
2019-05-11T06:22:40.420Z,99.90
2019-05-11T06:25:09.891Z,99.90
2019-05-11T06:27:39.354Z,99.90
2019-05-11T06:30:08.959Z,99.90
2019-05-11T06:32:38.436Z,99.90
2019-05-11T06:35:08.461Z,99.90
2019-05-11T06:37:37.945Z,99.90
2019-05-11T06:40:08.327Z,99.90
2019-05-11T06:42:38.569Z,99.90
2019-05-11T06:45:08.052Z,99.90
2019-05-11T06:47:37.680Z,99.90
2019-05-11T06:50:07.204Z,99.90
2019-05-11T06:52:36.674Z,99.90
2019-05-11T06:55:06.134Z,99.90
2019-05-11T06:57:35.642Z,99.90
2019-05-11T07:00:05.813Z,99.90
2019-05-11T07:02:35.288Z,99.90
2019-05-11T07:05:06.615Z,99.90
2019-05-11T07:07:47.219Z,99.90
2019-05-11T07:10:07.549Z,99.90
2019-05-11T07:12:37.044Z,99.90
2019-05-11T07:15:08.228Z,99.90
2019-05-11T07:17:37.963Z,99.90
2019-05-11T07:20:09.107Z,99.90
2019-05-11T07:22:38.577Z,99.90
2019-05-11T07:25:08.128Z,99.90
2019-05-11T07:27:37.679Z,99.90
2019-05-11T07:30:08.704Z,99.90
2019-05-11T07:32:38.435Z,99.90
2019-05-11T07:35:08.820Z,99.90
2019-05-11T07:37:38.901Z,99.90
2019-05-11T07:40:08.501Z,99.90
2019-05-11T07:42:38.306Z,99.90
2019-05-11T07:45:09.046Z,99.90
2019-05-11T07:47:38.699Z,99.90
2019-05-11T07:50:08.717Z,99.90
2019-05-11T07:52:38.204Z,99.90
2019-05-11T07:55:08.640Z,99.90
2019-05-11T07:57:39.219Z,99.90
2019-05-11T08:00:09.039Z,99.90
2019-05-11T08:02:38.946Z,99.90
2019-05-11T08:05:08.857Z,99.90
2019-05-11T08:07:38.577Z,99.90
2019-05-11T08:10:08.439Z,99.90
2019-05-11T08:12:39.172Z,99.90
2019-05-11T08:15:13.189Z,99.90
2019-05-11T08:17:40.733Z,99.90
2019-05-11T08:20:10.294Z,99.90
2019-05-11T08:22:39.774Z,99.90
2019-05-11T08:25:09.473Z,99.90
2019-05-11T08:27:39.121Z,99.90
2019-05-11T08:30:12.074Z,99.90
2019-05-11T08:32:41.567Z,99.90
2019-05-11T08:35:11.037Z,99.90
2019-05-11T08:37:40.521Z,99.90
2019-05-11T08:40:10.126Z,99.90
2019-05-11T08:42:39.625Z,99.90
2019-05-11T08:45:18.992Z,99.90
2019-05-11T08:47:40.499Z,99.90
2019-05-11T08:50:10.268Z,99.90
2019-05-11T08:52:39.753Z,99.90
2019-05-11T08:55:09.658Z,99.90
2019-05-11T08:57:39.141Z,99.90
2019-05-11T09:00:10.963Z,99.90
2019-05-11T09:02:40.472Z,99.90
2019-05-11T09:05:10.034Z,99.90
2019-05-11T09:07:39.501Z,99.90
2019-05-11T09:10:09.012Z,99.90
2019-05-11T09:12:38.577Z,99.90
2019-05-11T09:15:08.889Z,99.90
2019-05-11T09:17:38.650Z,99.90
2019-05-11T09:20:08.826Z,99.90
2019-05-11T09:22:38.487Z,99.90
2019-05-11T09:25:09.022Z,99.90
2019-05-11T09:27:38.532Z,99.90
2019-05-11T09:30:08.575Z,99.90
2019-05-11T09:32:38.641Z,99.90
2019-05-11T09:35:08.524Z,99.90
2019-05-11T09:37:38.334Z,99.90
2019-05-11T09:40:08.087Z,99.90
2019-05-11T09:42:38.827Z,99.90
2019-05-11T09:45:08.526Z,99.90
2019-05-11T09:47:38.766Z,99.90
2019-05-11T09:50:08.814Z,99.90
2019-05-11T09:52:38.710Z,99.90
2019-05-11T09:55:08.928Z,99.90
2019-05-11T09:57:38.736Z,99.90
2019-05-11T10:00:08.862Z,99.90
2019-05-11T10:02:38.879Z,99.90
2019-05-11T10:05:08.638Z,99.90
2019-05-11T10:07:38.349Z,99.90
2019-05-11T10:10:09.405Z,99.90
2019-05-11T10:12:39.036Z,99.90
2019-05-11T10:15:08.731Z,99.90
2019-05-11T10:17:38.644Z,99.90
2019-05-11T10:20:09.472Z,99.90
2019-05-11T10:22:38.937Z,99.90
2019-05-11T10:25:09.195Z,99.90
2019-05-11T10:27:38.776Z,99.90
2019-05-11T10:30:08.878Z,99.90
2019-05-11T10:32:39.057Z,99.90
2019-05-11T10:35:08.532Z,99.90
2019-05-11T10:37:38.952Z,99.90
2019-05-11T10:40:09.529Z,99.90
2019-05-11T10:42:39.354Z,97.40
2019-05-11T10:45:09.389Z,95.90
2019-05-11T10:47:39.144Z,95.10
2019-05-11T10:50:08.864Z,96.10
2019-05-11T10:52:38.323Z,95.40
2019-05-11T10:55:08.901Z,94.40
2019-05-11T10:57:38.890Z,94.20
2019-05-11T11:00:09.185Z,92.90
2019-05-11T11:02:38.838Z,91.70
2019-05-11T11:05:08.448Z,91.30
2019-05-11T11:07:38.533Z,92.10
2019-05-11T11:10:09.065Z,93.00
2019-05-11T11:12:38.781Z,93.30
2019-05-11T11:15:09.033Z,92.90
2019-05-11T11:17:38.538Z,93.50
2019-05-11T11:20:08.798Z,93.30
2019-05-11T11:22:43.500Z,92.00
2019-05-11T11:25:09.614Z,92.00
2019-05-11T11:27:39.089Z,91.30
2019-05-11T11:30:09.320Z,90.40
2019-05-11T11:32:58.845Z,89.50
2019-05-11T11:35:28.665Z,89.30
2019-05-11T11:37:58.587Z,89.20
2019-05-11T11:40:28.379Z,89.30
2019-05-11T11:42:58.204Z,88.50
2019-05-11T11:45:28.829Z,87.10
2019-05-11T11:47:58.618Z,86.20
2019-05-11T11:50:28.474Z,85.90
2019-05-11T11:52:58.079Z,83.90
2019-05-11T11:55:28.970Z,84.40
2019-05-11T11:57:59.043Z,81.50
2019-05-11T12:00:29.099Z,81.10
2019-05-11T12:02:58.771Z,80.40
2019-05-11T12:05:28.479Z,82.00
2019-05-11T12:07:58.206Z,79.60
2019-05-11T12:10:28.699Z,78.60
2019-05-11T12:13:44.163Z,75.00
2019-05-11T12:16:13.662Z,75.20
2019-05-11T12:18:43.164Z,74.40
2019-05-11T12:21:12.772Z,74.70
2019-05-11T12:23:42.321Z,72.40
2019-05-11T12:26:11.757Z,71.00
2019-05-11T12:28:41.156Z,71.70
2019-05-11T12:31:11.000Z,69.50
2019-05-11T12:33:40.464Z,66.50
2019-05-11T12:36:09.971Z,66.10
2019-05-11T12:38:39.653Z,65.90
2019-05-11T12:41:09.125Z,68.60
2019-05-11T12:43:38.606Z,69.20
2019-05-11T12:46:08.253Z,69.60
2019-05-11T12:48:38.074Z,69.30
2019-05-11T12:51:08.175Z,71.60
2019-05-11T12:53:38.491Z,71.70
2019-05-11T12:56:08.500Z,71.60
2019-05-11T12:58:39.600Z,73.00
2019-05-11T13:01:09.410Z,68.20
2019-05-11T13:03:38.884Z,68.60
2019-05-11T13:06:08.483Z,70.30
2019-05-11T13:08:38.881Z,69.70
2019-05-11T13:11:08.855Z,68.70
2019-05-11T13:13:38.453Z,70.10
2019-05-11T13:16:08.704Z,70.80
2019-05-11T13:18:38.612Z,71.80
2019-05-11T13:21:08.315Z,73.80
2019-05-11T13:23:38.354Z,73.80
2019-05-11T13:26:08.811Z,69.00
2019-05-11T13:28:38.575Z,63.80
2019-05-11T13:31:08.370Z,63.70
2019-05-11T13:33:38.531Z,59.70
2019-05-11T13:36:09.049Z,56.70
2019-05-11T13:38:38.978Z,55.90
2019-05-11T13:41:08.539Z,53.30
2019-05-11T13:43:38.615Z,49.50
2019-05-11T13:47:02.937Z,49.10
2019-05-11T13:49:32.752Z,50.20
2019-05-11T13:52:02.303Z,52.70
2019-05-11T13:54:31.834Z,55.70
2019-05-11T13:57:01.311Z,57.90
2019-05-11T13:59:30.819Z,59.10
2019-05-11T14:02:00.224Z,56.90
2019-05-11T14:04:29.706Z,56.20
2019-05-11T14:06:59.395Z,56.20
2019-05-11T14:09:29.687Z,55.20
2019-05-11T14:11:59.187Z,54.20
2019-05-11T14:14:29.110Z,55.30
2019-05-11T14:16:58.990Z,52.20
2019-05-11T14:19:29.184Z,53.40
2019-05-11T14:21:59.322Z,55.80
2019-05-11T14:24:28.969Z,55.50
2019-05-11T14:26:58.481Z,55.20
2019-05-11T14:29:28.553Z,54.90
2019-05-11T14:31:58.284Z,55.70
2019-05-11T14:34:28.482Z,56.30
2019-05-11T14:36:58.355Z,57.40
2019-05-11T14:39:28.126Z,58.30
2019-05-11T14:41:58.691Z,59.90
2019-05-11T14:44:28.789Z,61.10
2019-05-11T14:46:59.234Z,59.70
2019-05-11T14:49:29.155Z,59.30
2019-05-11T14:51:58.663Z,56.60
2019-05-11T14:54:28.827Z,56.00
2019-05-11T14:56:58.778Z,54.80
2019-05-11T14:59:28.744Z,53.20
2019-05-11T15:01:58.500Z,53.10
2019-05-11T15:04:28.693Z,51.00
2019-05-11T15:06:58.380Z,49.90
2019-05-11T15:09:28.553Z,50.90
2019-05-11T15:11:58.271Z,51.40
2019-05-11T15:14:28.916Z,51.50
2019-05-11T15:16:58.506Z,51.80
2019-05-11T15:19:28.019Z,52.60
2019-05-11T15:21:58.170Z,53.70
2019-05-11T15:24:28.742Z,53.00
2019-05-11T15:26:58.523Z,53.10
2019-05-11T15:29:28.757Z,52.00
2019-05-11T15:31:58.411Z,52.30
2019-05-11T15:34:28.840Z,53.20
2019-05-11T15:36:58.564Z,53.50
2019-05-11T15:39:28.670Z,55.30
2019-05-11T15:42:09.332Z,55.90
2019-05-11T15:44:29.679Z,56.30
2019-05-11T15:46:59.177Z,57.40
2019-05-11T15:49:28.647Z,58.10
2019-05-11T15:51:58.156Z,58.70
2019-05-11T15:54:28.798Z,59.90
2019-05-11T15:56:59.974Z,59.70
2019-05-11T15:59:30.533Z,59.60
2019-05-11T16:02:00.464Z,60.10
2019-05-11T16:04:29.961Z,62.10
2019-05-11T16:07:00.112Z,62.60
2019-05-11T16:09:29.802Z,63.00
2019-05-11T16:11:59.282Z,62.10
2019-05-11T16:14:28.803Z,63.10
2019-05-11T16:16:58.537Z,64.00
2019-05-11T16:19:28.255Z,65.00
2019-05-11T16:21:57.823Z,65.50
2019-05-11T16:24:27.422Z,65.90
2019-05-11T16:26:58.251Z,65.70
2019-05-11T16:29:28.203Z,65.50
2019-05-11T16:31:57.979Z,65.60
2019-05-11T16:34:27.869Z,64.90
2019-05-11T16:36:57.480Z,65.00
2019-05-11T16:39:27.981Z,65.50
2019-05-11T16:42:17.103Z,65.80
2019-05-11T16:44:48.303Z,66.80
2019-05-11T16:47:18.178Z,68.30
2019-05-11T16:49:47.822Z,68.80
2019-05-11T16:52:18.330Z,69.40
2019-05-11T16:54:48.048Z,69.80
2019-05-11T16:57:17.812Z,70.10
2019-05-11T16:59:48.378Z,71.20
2019-05-11T17:02:18.784Z,70.60
2019-05-11T17:04:48.461Z,71.80
2019-05-11T17:07:18.041Z,71.40
2019-05-11T17:09:48.294Z,72.20
2019-05-11T17:12:18.155Z,72.50
2019-05-11T17:15:00.381Z,71.80
2019-05-11T17:17:29.888Z,72.50
2019-05-11T17:19:59.421Z,71.60
2019-05-11T17:22:28.937Z,71.90
2019-05-11T17:24:58.939Z,71.40
2019-05-11T17:27:28.728Z,71.70
2019-05-11T17:29:59.308Z,72.00
2019-05-11T17:32:29.496Z,71.20
2019-05-11T17:34:59.052Z,72.00
2019-05-11T17:37:28.767Z,72.80
2019-05-11T17:39:58.708Z,72.50
2019-05-11T17:42:28.606Z,72.20
2019-05-11T17:44:58.900Z,72.50
2019-05-11T17:47:47.962Z,72.60
2019-05-11T17:50:19.091Z,73.50
2019-05-11T17:52:48.817Z,73.30
2019-05-11T17:55:18.691Z,73.50
2019-05-11T17:57:49.183Z,74.40
2019-05-11T18:00:20.717Z,74.60
2019-05-11T18:02:50.435Z,74.80
2019-05-11T18:05:19.902Z,74.60
2019-05-11T18:07:49.315Z,75.10
2019-05-11T18:10:18.794Z,74.90
2019-05-11T18:12:48.890Z,75.40
2019-05-11T18:15:19.066Z,75.70
2019-05-11T18:17:49.019Z,76.30
2019-05-11T18:20:21.749Z,76.30
2019-05-11T18:22:50.259Z,76.50
2019-05-11T18:25:19.733Z,76.50
2019-05-11T18:27:49.215Z,76.80
2019-05-11T18:30:18.729Z,77.40
2019-05-11T18:32:49.240Z,77.60
2019-05-11T18:35:19.668Z,78.80
2019-05-11T18:37:49.332Z,78.70
2019-05-11T18:40:19.039Z,78.50
2019-05-11T18:42:49.191Z,78.90
2019-05-11T18:45:19.295Z,79.80
2019-05-11T18:47:49.473Z,80.70
2019-05-11T18:50:30.134Z,85.50
2019-05-11T18:52:50.486Z,88.40
2019-05-11T18:55:19.982Z,90.70
2019-05-11T18:57:49.577Z,92.00
2019-05-11T19:00:19.832Z,92.90
2019-05-11T19:02:49.905Z,93.90
2019-05-11T19:05:19.554Z,96.20
2019-05-11T19:07:49.027Z,98.30
2019-05-11T19:10:18.648Z,99.90
2019-05-11T19:12:48.990Z,99.90
2019-05-11T19:15:19.236Z,99.90
2019-05-11T19:17:49.494Z,99.90
2019-05-11T19:20:19.141Z,99.90
2019-05-11T19:22:48.612Z,99.90
2019-05-11T19:25:18.499Z,99.90
2019-05-11T19:27:50.687Z,99.90
2019-05-11T19:30:20.232Z,99.90
2019-05-11T19:32:50.308Z,99.90
2019-05-11T19:35:21.301Z,99.90
2019-05-11T19:37:51.513Z,99.90
2019-05-11T19:40:21.046Z,99.90
2019-05-11T19:42:53.805Z,99.90
2019-05-11T19:45:24.044Z,99.90
2019-05-11T19:47:54.241Z,99.90
2019-05-11T19:50:23.701Z,99.90
2019-05-11T19:52:53.517Z,99.90
2019-05-11T19:55:22.987Z,99.90
2019-05-11T19:57:52.793Z,99.90
2019-05-11T20:00:22.457Z,99.90
2019-05-11T20:02:51.923Z,99.90
2019-05-11T20:05:21.402Z,99.90
2019-05-11T20:07:50.909Z,99.90
2019-05-11T20:10:20.398Z,99.90
2019-05-11T20:12:50.126Z,99.90
2019-05-11T20:15:19.549Z,99.90
2019-05-11T20:17:49.249Z,99.90
2019-05-11T20:20:19.027Z,99.90
2019-05-11T20:22:48.947Z,99.90
2019-05-11T20:25:19.365Z,99.90
2019-05-11T20:27:49.229Z,99.90
2019-05-11T20:30:19.570Z,99.90
2019-05-11T20:32:49.506Z,99.90
2019-05-11T20:35:19.217Z,99.90
2019-05-11T20:37:48.703Z,99.90
2019-05-11T20:40:18.602Z,99.90
2019-05-11T20:42:48.598Z,99.90
2019-05-11T20:45:18.829Z,99.90
2019-05-11T20:47:49.097Z,99.90
2019-05-11T20:50:18.946Z,99.90
2019-05-11T20:52:49.235Z,99.90
2019-05-11T20:55:18.720Z,99.90
2019-05-11T20:57:48.746Z,99.90
2019-05-11T21:00:18.803Z,99.90
2019-05-11T21:02:49.153Z,99.90
2019-05-11T21:05:18.933Z,99.90
2019-05-11T21:07:48.407Z,99.90
2019-05-11T21:10:17.926Z,99.90
2019-05-11T21:12:47.442Z,99.90
2019-05-11T21:15:16.920Z,99.90
2019-05-11T21:17:50.182Z,99.90
2019-05-11T21:20:18.159Z,99.90
2019-05-11T21:22:48.636Z,99.90
2019-05-11T21:25:18.423Z,99.90
2019-05-11T21:27:48.667Z,99.90
2019-05-11T21:30:18.653Z,99.90
2019-05-11T21:32:48.367Z,99.90
2019-05-11T21:35:19.181Z,99.90
2019-05-11T21:37:49.031Z,99.90
2019-05-11T21:40:18.598Z,99.90
2019-05-11T21:42:48.165Z,99.90
2019-05-11T21:45:18.365Z,99.90
2019-05-11T21:47:49.034Z,99.90
2019-05-11T21:50:19.354Z,99.90
2019-05-11T21:52:48.977Z,99.90
2019-05-11T21:55:18.449Z,99.90
2019-05-11T21:57:49.784Z,99.90
2019-05-11T22:00:19.204Z,99.90
2019-05-11T22:02:48.825Z,99.90
2019-05-11T22:05:20.876Z,99.90
2019-05-11T22:07:49.738Z,99.90
2019-05-11T22:10:19.222Z,99.90
2019-05-11T22:12:49.144Z,99.90
2019-05-11T22:15:18.825Z,99.90
2019-05-11T22:17:48.500Z,99.90
2019-05-11T22:20:18.525Z,99.90
2019-05-11T22:22:48.539Z,99.90
2019-05-11T22:25:18.428Z,99.90
2019-05-11T22:27:48.817Z,99.90
2019-05-11T22:30:18.792Z,99.90
2019-05-11T22:32:48.372Z,99.90
2019-05-11T22:35:18.538Z,99.90
2019-05-11T22:37:49.095Z,99.90
2019-05-11T22:40:18.824Z,99.90
2019-05-11T22:42:48.301Z,99.90
2019-05-11T22:45:18.737Z,99.90
2019-05-11T22:47:48.567Z,99.90
2019-05-11T22:50:18.837Z,99.90
2019-05-11T22:52:48.817Z,99.90
2019-05-11T22:55:19.073Z,99.90
2019-05-11T22:57:48.838Z,99.90
2019-05-11T23:00:28.671Z,99.90
2019-05-11T23:02:58.757Z,99.90
2019-05-11T23:05:29.962Z,99.90
2019-05-11T23:07:59.610Z,99.90
2019-05-11T23:10:29.091Z,99.90
2019-05-11T23:12:58.571Z,99.90
2019-05-11T23:15:28.086Z,99.90
2019-05-11T23:17:59.796Z,99.90
2019-05-11T23:20:30.166Z,99.90
2019-05-11T23:23:01.682Z,99.90
2019-05-11T23:25:31.727Z,99.90
2019-05-11T23:28:01.187Z,99.90
2019-05-11T23:30:30.733Z,99.90
2019-05-11T23:33:00.191Z,99.90
2019-05-11T23:35:30.384Z,99.90
2019-05-11T23:37:59.874Z,99.90
2019-05-11T23:40:29.385Z,99.90
2019-05-11T23:42:58.939Z,99.90
2019-05-11T23:45:28.477Z,99.90
2019-05-11T23:47:58.877Z,99.90
2019-05-11T23:50:28.665Z,99.90
2019-05-11T23:53:06.452Z,99.90
2019-05-11T23:55:29.887Z,99.90
2019-05-11T23:57:59.368Z,99.90
